createdAt,value
2018-11-12T00:00:23.519Z,2.83
2018-11-12T00:01:03.080Z,2.60
2018-11-12T00:01:40.940Z,2.30
2018-11-12T00:02:18.795Z,1.70
2018-11-12T00:03:00.864Z,2.07
2018-11-12T00:03:38.842Z,2.20
2018-11-12T00:04:16.970Z,2.80
2018-11-12T00:04:54.767Z,2.83
2018-11-12T00:05:32.641Z,2.40
2018-11-12T00:06:10.700Z,2.33
2018-11-12T00:06:48.655Z,2.10
2018-11-12T00:07:26.612Z,2.10
2018-11-12T00:08:04.488Z,2.97
2018-11-12T00:08:42.532Z,1.70
2018-11-12T00:09:20.404Z,2.20
2018-11-12T00:09:58.360Z,2.23
2018-11-12T00:10:36.226Z,2.53
2018-11-12T00:11:14.095Z,2.07
2018-11-12T00:11:51.880Z,2.33
2018-11-12T00:12:30.007Z,2.23
2018-11-12T00:13:07.893Z,1.70
2018-11-12T00:13:45.940Z,2.23
2018-11-12T00:14:23.856Z,2.47
2018-11-12T00:15:01.946Z,2.33
2018-11-12T00:15:40.052Z,2.50
2018-11-12T00:16:18.169Z,2.00
2018-11-12T00:16:56.099Z,2.40
2018-11-12T00:17:34.172Z,2.17
2018-11-12T00:18:11.973Z,2.30
2018-11-12T00:18:49.877Z,2.50
2018-11-12T00:19:27.807Z,2.60
2018-11-12T00:20:05.972Z,2.53
2018-11-12T00:20:44.740Z,3.00
2018-11-12T00:21:22.595Z,2.67
2018-11-12T00:22:00.672Z,2.60
2018-11-12T00:22:39.065Z,2.70
2018-11-12T00:23:17.036Z,2.80
2018-11-12T00:23:54.946Z,3.13
2018-11-12T00:24:32.782Z,3.27
2018-11-12T00:25:10.970Z,3.00
2018-11-12T00:25:48.963Z,2.70
2018-11-12T00:26:27.005Z,3.10
2018-11-12T00:27:04.927Z,2.63
2018-11-12T00:27:43.024Z,2.80
2018-11-12T00:28:20.914Z,2.93
2018-11-12T00:28:58.701Z,2.70
2018-11-12T00:29:36.555Z,2.67
2018-11-12T00:30:18.602Z,3.00
2018-11-12T00:30:56.751Z,3.03
2018-11-12T00:31:34.565Z,2.33
2018-11-12T00:32:12.437Z,2.33
2018-11-12T00:32:50.940Z,2.17
2018-11-12T00:33:29.004Z,2.07
2018-11-12T00:34:06.825Z,2.63
2018-11-12T00:34:44.713Z,2.27
2018-11-12T00:35:22.564Z,2.47
2018-11-12T00:36:00.490Z,2.60
2018-11-12T00:36:38.650Z,2.40
2018-11-12T00:37:16.456Z,2.10
2018-11-12T00:37:54.807Z,2.30
2018-11-12T00:38:32.865Z,2.87
2018-11-12T00:39:13.830Z,1.90
2018-11-12T00:39:52.669Z,2.50
2018-11-12T00:40:30.743Z,2.03
2018-11-12T00:41:11.070Z,3.10
2018-11-12T00:41:49.043Z,2.80
2018-11-12T00:42:26.906Z,2.70
2018-11-12T00:43:04.991Z,2.27
2018-11-12T00:43:42.954Z,2.20
2018-11-12T00:44:21.140Z,2.13
2018-11-12T00:44:59.371Z,2.40
2018-11-12T00:45:37.251Z,2.77
2018-11-12T00:46:15.299Z,2.57
2018-11-12T00:46:54.131Z,2.53
2018-11-12T00:47:32.132Z,3.00
2018-11-12T00:48:10.196Z,2.40
2018-11-12T00:48:48.105Z,3.00
2018-11-12T00:49:25.966Z,2.47
2018-11-12T00:50:03.846Z,2.03
2018-11-12T00:50:42.168Z,2.60
2018-11-12T00:51:20.046Z,2.53
2018-11-12T00:51:57.796Z,2.47
2018-11-12T00:52:35.894Z,3.10
2018-11-12T00:53:13.751Z,2.80
2018-11-12T00:53:52.376Z,3.03
2018-11-12T00:54:30.274Z,2.40
2018-11-12T00:55:08.399Z,2.40
2018-11-12T00:55:46.384Z,2.23
2018-11-12T00:56:24.457Z,2.73
2018-11-12T00:57:02.417Z,2.70
2018-11-12T00:57:41.774Z,2.50
2018-11-12T00:58:19.598Z,2.50
2018-11-12T00:58:57.573Z,2.83
2018-11-12T00:59:35.374Z,3.07
2018-11-12T01:03:16.370Z,3.80
2018-11-12T01:03:54.298Z,3.13
2018-11-12T01:04:32.143Z,2.93
2018-11-12T01:05:10.597Z,3.73
2018-11-12T01:05:48.594Z,2.77
2018-11-12T01:06:26.645Z,3.50
2018-11-12T01:07:04.444Z,3.87
2018-11-12T01:07:42.519Z,3.57
2018-11-12T01:08:20.585Z,4.47
2018-11-12T01:08:58.605Z,4.00
2018-11-12T01:09:36.484Z,3.90
2018-11-12T01:10:15.643Z,4.57
2018-11-12T01:10:53.703Z,3.57
2018-11-12T01:11:31.579Z,4.00
2018-11-12T01:12:10.747Z,3.37
2018-11-12T01:12:49.009Z,3.70
2018-11-12T01:13:26.995Z,2.90
2018-11-12T01:14:04.845Z,3.50
2018-11-12T01:14:42.933Z,3.90
2018-11-12T01:15:22.203Z,3.40
2018-11-12T01:16:00.149Z,3.13
2018-11-12T01:16:38.023Z,3.90
2018-11-12T01:17:15.906Z,3.20
2018-11-12T01:17:53.814Z,3.30
2018-11-12T01:18:31.700Z,3.93
2018-11-12T01:19:09.731Z,3.03
2018-11-12T01:19:47.700Z,3.47
2018-11-12T01:20:25.666Z,4.30
2018-11-12T01:21:03.423Z,3.60
2018-11-12T01:21:41.295Z,3.50
2018-11-12T01:22:19.148Z,3.03
2018-11-12T01:22:57.051Z,4.20
2018-11-12T01:23:35.001Z,4.10
2018-11-12T01:24:13.292Z,4.10
2018-11-12T01:24:51.146Z,3.40
2018-11-12T01:25:29.365Z,3.20
2018-11-12T01:26:07.463Z,3.40
2018-11-12T01:26:45.315Z,4.13
2018-11-12T01:27:23.162Z,3.93
2018-11-12T01:28:01.196Z,3.47
2018-11-12T01:28:39.111Z,3.70
2018-11-12T01:29:16.938Z,3.70
2018-11-12T01:29:56.226Z,3.57
2018-11-12T01:30:35.405Z,3.40
2018-11-12T01:31:13.367Z,3.17
2018-11-12T01:31:51.535Z,3.27
2018-11-12T01:32:29.443Z,3.33
2018-11-12T01:33:07.489Z,3.47
2018-11-12T01:33:45.379Z,3.87
2018-11-12T01:34:23.396Z,3.30
2018-11-12T01:35:01.416Z,2.83
2018-11-12T01:35:39.268Z,3.40
2018-11-12T01:36:17.190Z,3.03
2018-11-12T01:36:55.128Z,3.60
2018-11-12T01:37:33.652Z,2.60
2018-11-12T01:38:11.539Z,3.50
2018-11-12T01:38:49.557Z,3.00
2018-11-12T01:39:27.717Z,3.10
2018-11-12T01:40:05.488Z,3.30
2018-11-12T01:40:43.441Z,3.17
2018-11-12T01:41:21.379Z,4.10
2018-11-12T01:42:00.358Z,3.47
2018-11-12T01:42:38.191Z,3.53
2018-11-12T01:43:16.244Z,3.23
2018-11-12T01:43:54.110Z,2.93
2018-11-12T01:44:31.877Z,3.00
2018-11-12T01:45:13.204Z,3.27
2018-11-12T01:45:51.230Z,3.13
2018-11-12T01:46:29.122Z,3.23
2018-11-12T01:47:06.933Z,3.40
2018-11-12T01:47:47.060Z,3.20
2018-11-12T01:48:25.749Z,2.67
2018-11-12T01:49:03.652Z,3.10
2018-11-12T01:49:41.962Z,3.20
2018-11-12T01:50:20.901Z,3.10
2018-11-12T01:50:58.744Z,3.17
2018-11-12T01:51:36.803Z,2.90
2018-11-12T01:52:14.659Z,3.20
2018-11-12T01:52:52.802Z,3.37
2018-11-12T01:53:30.893Z,3.47
2018-11-12T01:54:08.879Z,3.00
2018-11-12T01:54:47.701Z,2.97
2018-11-12T01:55:26.653Z,3.23
2018-11-12T01:56:04.642Z,2.50
2018-11-12T01:56:42.503Z,3.20
2018-11-12T01:57:20.386Z,2.43
2018-11-12T01:57:58.780Z,2.90
2018-11-12T01:58:36.797Z,2.60
2018-11-12T01:59:15.079Z,3.50
2018-11-12T01:59:52.953Z,2.53
2018-11-12T02:00:30.874Z,2.47
2018-11-12T02:01:08.898Z,2.27
2018-11-12T02:01:46.762Z,2.43
2018-11-12T02:02:24.711Z,2.57
2018-11-12T02:03:02.901Z,2.47
2018-11-12T02:03:40.780Z,2.63
2018-11-12T02:04:18.554Z,2.53
2018-11-12T02:04:56.446Z,2.13
2018-11-12T02:05:34.412Z,2.53
2018-11-12T02:06:12.285Z,2.07
2018-11-12T02:06:50.173Z,1.80
2018-11-12T02:07:28.124Z,2.50
2018-11-12T02:08:05.896Z,2.40
2018-11-12T02:08:43.879Z,3.33
2018-11-12T02:09:21.967Z,2.50
2018-11-12T02:10:00.352Z,2.23
2018-11-12T02:10:38.172Z,3.23
2018-11-12T02:11:16.144Z,2.20
2018-11-12T02:11:54.065Z,2.60
2018-11-12T02:12:31.896Z,2.47
2018-11-12T02:13:10.124Z,2.33
2018-11-12T02:13:48.127Z,2.53
2018-11-12T02:14:25.983Z,2.30
2018-11-12T02:15:03.807Z,2.83
2018-11-12T02:15:41.676Z,2.50
2018-11-12T02:16:19.614Z,2.70
2018-11-12T02:16:58.093Z,2.60
2018-11-12T02:17:35.904Z,2.83
2018-11-12T02:18:13.914Z,2.70
2018-11-12T02:18:51.841Z,2.77
2018-11-12T02:19:29.757Z,3.07
2018-11-12T02:20:08.135Z,2.53
2018-11-12T02:20:45.922Z,3.10
2018-11-12T02:21:23.818Z,2.60
2018-11-12T02:22:01.859Z,3.03
2018-11-12T02:22:39.909Z,2.83
2018-11-12T02:23:17.677Z,2.87
2018-11-12T02:23:56.505Z,3.10
2018-11-12T02:24:34.420Z,3.30
2018-11-12T02:25:13.387Z,3.23
2018-11-12T02:25:51.260Z,2.90
2018-11-12T02:26:30.023Z,3.03
2018-11-12T02:27:08.451Z,3.27
2018-11-12T02:27:46.297Z,4.10
2018-11-12T02:28:24.104Z,2.60
2018-11-12T02:29:02.068Z,3.33
2018-11-12T02:29:39.943Z,3.60
2018-11-12T02:30:22.737Z,3.13
2018-11-12T02:31:00.772Z,3.20
2018-11-12T02:31:38.755Z,3.20
2018-11-12T02:32:16.644Z,2.93
2018-11-12T02:32:55.136Z,3.23
2018-11-12T02:33:33.042Z,3.03
2018-11-12T02:34:11.005Z,2.70
2018-11-12T02:34:48.816Z,3.20
2018-11-12T02:35:26.906Z,3.00
2018-11-12T02:36:05.026Z,2.70
2018-11-12T02:36:42.836Z,3.30
2018-11-12T02:37:20.961Z,2.80
2018-11-12T02:37:58.958Z,3.60
2018-11-12T02:38:36.807Z,3.13
2018-11-12T02:39:14.915Z,2.90
2018-11-12T02:39:52.636Z,2.80
2018-11-12T02:40:30.697Z,2.83
2018-11-12T02:41:09.377Z,3.13
2018-11-12T02:41:47.427Z,2.83
2018-11-12T02:42:25.511Z,3.23
2018-11-12T02:43:03.874Z,3.00
2018-11-12T02:43:41.684Z,2.70
2018-11-12T02:44:19.994Z,3.00
2018-11-12T02:44:58.001Z,2.53
2018-11-12T02:45:36.619Z,2.57
2018-11-12T02:46:15.862Z,3.05
2018-11-12T02:46:56.456Z,2.90
2018-11-12T02:47:34.376Z,2.70
2018-11-12T02:48:13.292Z,3.30
2018-11-12T02:48:51.946Z,2.90
2018-11-12T02:49:29.872Z,2.90
2018-11-12T02:50:08.239Z,3.03
2018-11-12T02:50:46.228Z,3.10
2018-11-12T02:51:24.890Z,3.20
2018-11-12T02:52:02.809Z,2.47
2018-11-12T02:52:40.780Z,2.83
2018-11-12T02:53:18.710Z,3.00
2018-11-12T02:53:56.589Z,3.10
2018-11-12T02:54:34.580Z,2.20
2018-11-12T02:55:15.218Z,3.03
2018-11-12T02:55:53.131Z,2.77
2018-11-12T02:56:31.203Z,2.30
2018-11-12T02:57:09.106Z,2.90
2018-11-12T02:57:47.783Z,2.00
2018-11-12T02:58:25.736Z,1.87
2018-11-12T02:59:03.562Z,2.60
2018-11-12T02:59:41.396Z,2.00
2018-11-12T03:00:24.281Z,2.07
2018-11-12T03:01:02.213Z,2.20
2018-11-12T03:01:39.971Z,2.20
2018-11-12T03:02:17.841Z,2.13
2018-11-12T03:02:55.867Z,2.63
2018-11-12T03:03:34.071Z,2.70
2018-11-12T03:04:12.786Z,1.73
2018-11-12T03:04:51.667Z,1.67
2018-11-12T03:05:29.523Z,2.47
2018-11-12T03:06:07.541Z,1.93
2018-11-12T03:06:45.571Z,1.90
2018-11-12T03:07:23.432Z,2.20
2018-11-12T03:08:01.450Z,2.20
2018-11-12T03:08:39.368Z,2.20
2018-11-12T03:09:17.400Z,2.67
2018-11-12T03:09:55.228Z,2.47
2018-11-12T03:10:33.028Z,2.10
2018-11-12T03:11:11.104Z,2.93
2018-11-12T03:11:48.977Z,2.67
2018-11-12T03:12:28.217Z,3.33
2018-11-12T03:13:06.095Z,3.10
2018-11-12T03:13:43.974Z,3.00
2018-11-12T03:14:21.978Z,3.43
2018-11-12T03:15:00.019Z,3.17
2018-11-12T03:15:38.039Z,2.80
2018-11-12T03:16:15.923Z,4.00
2018-11-12T03:16:54.502Z,3.83
2018-11-12T03:17:32.319Z,2.83
2018-11-12T03:18:10.585Z,3.10
2018-11-12T03:18:49.784Z,3.20
2018-11-12T03:19:27.607Z,3.60
2018-11-12T03:20:05.760Z,2.90
2018-11-12T03:20:43.796Z,3.60
2018-11-12T03:21:22.563Z,3.13
2018-11-12T03:22:00.438Z,4.00
2018-11-12T03:22:38.607Z,3.90
2018-11-12T03:23:16.495Z,3.00
2018-11-12T03:23:54.339Z,3.53
2018-11-12T03:24:32.119Z,3.43
2018-11-12T03:25:11.970Z,3.90
2018-11-12T03:25:49.840Z,3.63
2018-11-12T03:26:27.788Z,3.53
2018-11-12T03:27:05.730Z,3.80
2018-11-12T03:27:44.378Z,3.70
2018-11-12T03:28:22.338Z,4.10
2018-11-12T03:29:00.732Z,4.37
2018-11-12T03:29:38.568Z,4.67
2018-11-12T03:30:18.939Z,3.90
2018-11-12T03:30:58.167Z,3.90
2018-11-12T03:31:38.141Z,3.50
2018-11-12T03:32:16.960Z,3.70
2018-11-12T03:32:56.027Z,3.90
2018-11-12T03:33:34.020Z,3.27
2018-11-12T03:34:14.600Z,3.53
2018-11-12T03:34:52.503Z,3.13
2018-11-12T03:35:30.360Z,3.70
2018-11-12T03:36:09.140Z,4.03
2018-11-12T03:36:48.523Z,4.00
2018-11-12T03:37:26.421Z,3.83
2018-11-12T03:38:04.322Z,3.40
2018-11-12T03:38:42.324Z,3.60
2018-11-12T03:39:20.299Z,4.20
2018-11-12T03:39:59.413Z,3.93
2018-11-12T03:43:45.779Z,4.20
2018-11-12T03:44:23.635Z,3.53
2018-11-12T03:45:01.486Z,3.87
2018-11-12T03:45:39.379Z,4.43
2018-11-12T03:46:17.371Z,3.97
2018-11-12T03:46:55.199Z,4.67
2018-11-12T03:47:32.940Z,4.10
2018-11-12T03:48:10.942Z,4.07
2018-11-12T03:48:48.846Z,4.87
2018-11-12T03:49:26.801Z,5.47
2018-11-12T03:50:04.728Z,3.80
2018-11-12T03:50:42.607Z,5.53
2018-11-12T03:51:20.596Z,4.30
2018-11-12T03:51:58.487Z,4.40
2018-11-12T03:52:36.512Z,4.30
2018-11-12T03:53:14.351Z,3.97
2018-11-12T03:53:52.270Z,3.90
2018-11-12T03:54:30.984Z,5.00
2018-11-12T03:55:09.137Z,4.97
2018-11-12T03:55:46.912Z,4.00
2018-11-12T03:56:25.687Z,4.20
2018-11-12T03:57:04.464Z,4.23
2018-11-12T03:57:42.392Z,4.50
2018-11-12T03:58:20.422Z,4.27
2018-11-12T03:58:59.085Z,4.37
2018-11-12T03:59:36.966Z,4.87
2018-11-12T04:00:19.695Z,4.23
2018-11-12T04:00:58.152Z,4.50
2018-11-12T04:01:40.301Z,4.00
2018-11-12T04:02:18.141Z,3.87
2018-11-12T04:02:56.161Z,4.13
2018-11-12T04:03:34.221Z,4.17
2018-11-12T04:04:12.457Z,3.63
2018-11-12T04:04:50.407Z,5.10
2018-11-12T04:05:28.691Z,3.60
2018-11-12T04:06:06.563Z,3.90
2018-11-12T04:06:44.828Z,3.53
2018-11-12T04:07:24.697Z,3.80
2018-11-12T04:08:02.556Z,3.03
2018-11-12T04:08:41.275Z,3.37
2018-11-12T04:09:19.280Z,4.30
2018-11-12T04:09:57.060Z,3.30
2018-11-12T04:10:35.136Z,3.50
2018-11-12T04:11:14.191Z,3.27
2018-11-12T04:11:52.797Z,3.60
2018-11-12T04:12:30.747Z,3.13
2018-11-12T04:13:10.820Z,3.60
2018-11-12T04:13:48.697Z,4.53
2018-11-12T04:14:26.889Z,3.07
2018-11-12T04:15:04.786Z,3.53
2018-11-12T04:15:42.960Z,3.13
2018-11-12T04:16:21.872Z,2.80
2018-11-12T04:16:59.882Z,3.40
2018-11-12T04:17:37.718Z,3.40
2018-11-12T04:18:15.588Z,3.17
2018-11-12T04:18:53.405Z,4.00
2018-11-12T04:19:32.013Z,3.73
2018-11-12T04:20:10.921Z,3.27
2018-11-12T04:20:48.786Z,3.67
2018-11-12T04:21:26.841Z,2.50
2018-11-12T04:22:04.635Z,2.90
2018-11-12T04:22:43.248Z,3.10
2018-11-12T04:23:21.128Z,3.10
2018-11-12T04:23:58.981Z,2.93
2018-11-12T04:24:36.859Z,3.40
2018-11-12T04:25:15.004Z,2.80
2018-11-12T04:25:52.927Z,3.00
2018-11-12T04:26:30.955Z,3.13
2018-11-12T04:27:09.679Z,2.30
2018-11-12T04:27:47.532Z,2.50
2018-11-12T04:28:25.403Z,2.50
2018-11-12T04:29:03.951Z,2.83
2018-11-12T04:29:42.198Z,2.60
2018-11-12T04:30:20.087Z,2.43
2018-11-12T04:30:57.886Z,2.20
2018-11-12T04:31:35.884Z,2.47
2018-11-12T04:32:15.016Z,3.00
2018-11-12T04:32:54.141Z,2.43
2018-11-12T04:33:31.918Z,2.70
2018-11-12T04:34:10.528Z,2.20
2018-11-12T04:34:48.404Z,3.00
2018-11-12T04:35:26.216Z,2.90
2018-11-12T04:36:04.237Z,1.80
2018-11-12T04:36:42.119Z,2.70
2018-11-12T04:37:21.809Z,2.90
2018-11-12T04:37:59.993Z,2.33
2018-11-12T04:38:37.876Z,2.97
2018-11-12T04:39:16.175Z,2.40
2018-11-12T04:39:54.032Z,2.97
2018-11-12T04:40:33.146Z,2.87
2018-11-12T04:41:11.159Z,2.83
2018-11-12T04:41:49.851Z,2.20
2018-11-12T04:42:28.913Z,2.30
2018-11-12T04:43:06.907Z,2.40
2018-11-12T04:43:45.808Z,2.70
2018-11-12T04:44:23.684Z,2.73
2018-11-12T04:45:01.521Z,2.10
2018-11-12T04:45:40.829Z,2.40
2018-11-12T04:46:18.756Z,2.73
2018-11-12T04:46:56.892Z,2.50
2018-11-12T04:47:34.794Z,2.73
2018-11-12T04:48:13.166Z,2.30
2018-11-12T04:48:51.280Z,2.33
2018-11-12T04:49:29.312Z,2.43
2018-11-12T04:50:07.563Z,2.53
2018-11-12T04:50:46.231Z,2.30
2018-11-12T04:51:23.989Z,2.67
2018-11-12T04:52:05.629Z,2.30
2018-11-12T04:52:43.607Z,2.03
2018-11-12T04:53:21.621Z,2.37
2018-11-12T04:54:00.344Z,2.43
2018-11-12T04:54:39.323Z,2.63
2018-11-12T04:55:19.513Z,2.33
2018-11-12T04:55:58.763Z,2.43
2018-11-12T04:56:36.604Z,2.43
2018-11-12T04:57:14.528Z,2.30
2018-11-12T04:57:52.562Z,2.70
2018-11-12T04:58:30.392Z,2.30
2018-11-12T04:59:09.634Z,2.50
2018-11-12T04:59:47.476Z,2.67
2018-11-12T05:00:32.230Z,2.30
2018-11-12T05:01:10.553Z,2.40
2018-11-12T05:01:48.495Z,2.03
2018-11-12T05:02:26.803Z,2.20
2018-11-12T05:03:04.805Z,1.87
2018-11-12T05:03:43.124Z,2.73
2018-11-12T05:04:21.083Z,2.83
2018-11-12T05:05:00.682Z,2.40
2018-11-12T05:05:38.557Z,2.10
2018-11-12T05:06:16.799Z,2.30
2018-11-12T05:06:55.430Z,2.13
2018-11-12T05:07:33.401Z,2.53
2018-11-12T05:08:12.576Z,2.10
2018-11-12T05:08:51.485Z,2.27
2018-11-12T05:09:30.371Z,1.97
2018-11-12T05:10:09.386Z,2.20
2018-11-12T05:10:47.332Z,2.30
2018-11-12T05:11:25.218Z,2.80
2018-11-12T05:12:03.247Z,2.60
2018-11-12T05:12:41.692Z,1.73
2018-11-12T05:13:19.697Z,1.90
2018-11-12T05:13:58.413Z,2.00
2018-11-12T05:14:36.399Z,2.10
2018-11-12T05:15:16.164Z,2.23
2018-11-12T05:15:54.074Z,1.90
2018-11-12T05:16:32.724Z,2.60
2018-11-12T05:17:10.619Z,2.50
2018-11-12T05:17:48.416Z,2.47
2018-11-12T05:18:26.427Z,2.60
2018-11-12T05:19:04.296Z,2.43
2018-11-12T05:19:43.600Z,2.80
2018-11-12T05:20:23.136Z,2.80
2018-11-12T05:21:01.741Z,3.00
2018-11-12T05:21:40.293Z,2.90
2018-11-12T05:22:18.123Z,3.07
2018-11-12T05:22:56.041Z,2.43
2018-11-12T05:23:33.876Z,3.00
2018-11-12T05:24:11.694Z,3.10
2018-11-12T05:24:49.514Z,2.90
2018-11-12T05:25:28.290Z,2.60
2018-11-12T05:26:06.217Z,2.70
2018-11-12T05:26:44.099Z,2.80
2018-11-12T05:27:22.437Z,2.90
2018-11-12T05:28:00.502Z,2.47
2018-11-12T05:28:38.456Z,3.10
2018-11-12T05:29:16.272Z,3.13
2018-11-12T05:29:54.309Z,3.13
2018-11-12T05:30:32.733Z,3.43
2018-11-12T05:31:11.455Z,2.83
2018-11-12T05:31:49.247Z,3.70
2018-11-12T05:32:28.214Z,2.90
2018-11-12T05:33:06.319Z,3.30
2018-11-12T05:33:44.264Z,3.40
2018-11-12T05:34:22.996Z,3.40
2018-11-12T05:35:00.787Z,3.40
2018-11-12T05:35:38.795Z,3.30
2018-11-12T05:36:17.035Z,2.83
2018-11-12T05:36:55.478Z,3.43
2018-11-12T05:37:34.332Z,4.00
2018-11-12T05:38:12.342Z,3.53
2018-11-12T05:38:50.198Z,3.70
2018-11-12T05:39:28.031Z,3.30
2018-11-12T05:40:05.883Z,3.90
2018-11-12T05:40:43.689Z,3.60
2018-11-12T05:41:21.509Z,3.57
2018-11-12T05:41:59.410Z,3.90
2018-11-12T05:42:37.355Z,4.17
2018-11-12T05:43:15.215Z,3.93
2018-11-12T05:43:54.263Z,3.97
2018-11-12T05:44:32.154Z,3.30
2018-11-12T05:45:10.315Z,3.40
2018-11-12T05:45:51.131Z,3.03
2018-11-12T05:46:30.217Z,3.23
2018-11-12T05:47:08.688Z,3.50
2018-11-12T05:47:47.399Z,3.70
2018-11-12T05:48:25.271Z,4.40
2018-11-12T05:49:03.085Z,3.30
2018-11-12T05:49:41.065Z,4.07
2018-11-12T05:50:21.520Z,4.10
2018-11-12T05:50:59.371Z,3.83
2018-11-12T05:51:37.583Z,4.00
2018-11-12T05:52:15.555Z,3.90
2018-11-12T05:52:55.989Z,3.97
2018-11-12T05:53:33.929Z,4.60
2018-11-12T05:54:12.040Z,3.60
2018-11-12T05:54:49.924Z,3.63
2018-11-12T05:55:28.992Z,4.20
2018-11-12T05:56:06.808Z,4.30
2018-11-12T05:56:44.752Z,3.63
2018-11-12T05:57:22.655Z,3.90
2018-11-12T05:58:00.595Z,4.40
2018-11-12T05:58:38.588Z,3.70
2018-11-12T05:59:16.392Z,4.47
2018-11-12T05:59:54.314Z,4.17
2018-11-12T06:00:34.126Z,4.30
2018-11-12T06:01:12.209Z,4.20
2018-11-12T06:01:50.022Z,4.10
2018-11-12T06:02:28.122Z,4.47
2018-11-12T06:03:06.606Z,3.60
2018-11-12T06:03:44.700Z,3.80
2018-11-12T06:04:25.992Z,3.63
2018-11-12T06:05:04.160Z,4.20
2018-11-12T06:05:42.196Z,4.03
2018-11-12T06:06:19.996Z,3.70
2018-11-12T06:06:58.863Z,4.03
2018-11-12T06:07:36.685Z,3.80
2018-11-12T06:08:15.638Z,4.60
2018-11-12T06:08:54.780Z,4.47
2018-11-12T06:09:32.675Z,4.60
2018-11-12T06:10:14.008Z,4.53
2018-11-12T06:10:51.831Z,4.20
2018-11-12T06:11:29.824Z,4.13
2018-11-12T06:12:07.978Z,4.73
2018-11-12T06:12:46.342Z,4.23
2018-11-12T06:13:24.197Z,4.17
2018-11-12T06:14:02.350Z,4.10
2018-11-12T06:14:40.407Z,4.57
2018-11-12T06:15:19.582Z,3.87
2018-11-12T06:15:57.735Z,4.10
2018-11-12T06:16:36.681Z,4.30
2018-11-12T06:17:14.516Z,4.30
2018-11-12T06:17:53.154Z,4.53
2018-11-12T06:18:31.250Z,4.67
2018-11-12T06:19:09.218Z,4.57
2018-11-12T06:19:46.994Z,4.60
2018-11-12T06:20:26.402Z,4.30
2018-11-12T06:21:04.395Z,4.43
2018-11-12T06:21:42.208Z,4.00
2018-11-12T06:22:20.265Z,4.77
2018-11-12T06:22:58.981Z,5.17
2018-11-12T06:23:37.457Z,5.37
2018-11-12T06:24:16.514Z,3.80
2018-11-12T06:24:54.400Z,4.90
2018-11-12T06:25:33.625Z,4.80
2018-11-12T06:26:12.825Z,4.70
2018-11-12T06:26:50.752Z,4.30
2018-11-12T06:27:28.706Z,4.40
2018-11-12T06:28:06.603Z,4.33
2018-11-12T06:28:44.578Z,4.70
2018-11-12T06:29:22.438Z,5.20
2018-11-12T06:30:00.419Z,4.97
2018-11-12T06:30:39.306Z,4.57
2018-11-12T06:31:17.406Z,5.27
2018-11-12T06:31:55.986Z,4.57
2018-11-12T06:32:38.631Z,5.40
2018-11-12T06:33:17.158Z,4.57
2018-11-12T06:33:55.180Z,4.87
2018-11-12T06:34:33.221Z,4.97
2018-11-12T06:35:12.681Z,4.67
2018-11-12T06:35:50.596Z,4.93
2018-11-12T06:36:28.764Z,4.83
2018-11-12T06:37:06.772Z,5.10
2018-11-12T06:37:45.597Z,4.07
2018-11-12T06:38:24.022Z,5.50
2018-11-12T06:39:02.966Z,6.00
2018-11-12T06:39:41.189Z,5.30
2018-11-12T06:40:20.379Z,5.13
2018-11-12T06:40:58.307Z,5.50
2018-11-12T06:41:36.090Z,5.03
2018-11-12T06:42:14.584Z,4.65
2018-11-12T06:42:52.716Z,4.77
2018-11-12T06:43:30.739Z,4.70
2018-11-12T06:44:09.491Z,5.00
2018-11-12T06:44:49.558Z,4.80
2018-11-12T06:45:29.546Z,4.70
2018-11-12T06:46:07.665Z,4.63
2018-11-12T06:46:47.466Z,4.77
2018-11-12T06:47:28.047Z,4.37
2018-11-12T06:48:06.005Z,4.90
2018-11-12T06:48:44.369Z,5.10
2018-11-12T06:49:22.273Z,6.03
2018-11-12T06:50:00.132Z,4.87
2018-11-12T06:50:38.084Z,4.97
2018-11-12T06:51:16.042Z,5.23
2018-11-12T06:51:53.963Z,4.97
2018-11-12T06:52:33.469Z,4.77
2018-11-12T06:53:11.420Z,4.30
2018-11-12T06:53:50.114Z,4.77
2018-11-12T06:54:28.046Z,5.13
2018-11-12T06:55:08.411Z,4.80
2018-11-12T06:55:46.302Z,4.53
2018-11-12T06:56:24.217Z,5.50
2018-11-12T06:57:03.229Z,4.07
2018-11-12T06:57:42.131Z,5.07
2018-11-12T06:58:19.934Z,4.73
2018-11-12T06:58:58.666Z,4.97
2018-11-12T06:59:37.716Z,5.20
2018-11-12T07:00:20.434Z,4.63
2018-11-12T07:00:59.171Z,4.47
2018-11-12T07:01:37.084Z,5.73
2018-11-12T07:02:21.413Z,4.33
2018-11-12T07:03:00.486Z,5.43
2018-11-12T07:03:39.401Z,5.67
2018-11-12T07:04:17.469Z,4.87
2018-11-12T07:04:55.499Z,5.80
2018-11-12T07:05:47.607Z,4.87
2018-11-12T07:06:25.496Z,5.37
2018-11-12T07:07:03.659Z,4.67
2018-11-12T07:07:41.833Z,4.10
2018-11-12T07:08:19.692Z,5.10
2018-11-12T07:08:57.566Z,4.83
2018-11-12T07:09:35.543Z,4.23
2018-11-12T07:13:28.268Z,4.20
2018-11-12T07:14:06.222Z,4.30
2018-11-12T07:14:44.129Z,4.27
2018-11-12T07:15:26.345Z,5.17
2018-11-12T07:16:04.620Z,3.60
2018-11-12T07:16:42.935Z,3.90
2018-11-12T07:17:20.954Z,4.33
2018-11-12T07:17:58.952Z,4.70
2018-11-12T07:18:39.705Z,4.30
2018-11-12T07:19:17.586Z,4.60
2018-11-12T07:19:59.850Z,4.43
2018-11-12T07:20:41.338Z,4.40
2018-11-12T07:21:19.435Z,4.33
2018-11-12T07:21:57.454Z,4.40
2018-11-12T07:22:36.550Z,4.90
2018-11-12T07:23:14.631Z,6.13
2018-11-12T07:23:52.457Z,4.47
2018-11-12T07:24:30.303Z,5.40
2018-11-12T07:25:09.053Z,5.00
2018-11-12T07:25:46.946Z,4.53
2018-11-12T07:26:24.790Z,4.90
2018-11-12T07:27:03.083Z,6.10
2018-11-12T07:27:40.905Z,4.70
2018-11-12T07:28:18.708Z,5.07
2018-11-12T07:28:56.666Z,6.13
2018-11-12T07:29:34.536Z,5.20
2018-11-12T07:30:15.362Z,5.47
2018-11-12T07:30:53.239Z,5.00
2018-11-12T07:31:31.867Z,4.53
2018-11-12T07:32:10.634Z,5.83
2018-11-12T07:32:49.180Z,4.90
2018-11-12T07:33:27.093Z,4.03
2018-11-12T07:34:04.838Z,5.10
2018-11-12T07:34:42.808Z,4.70
2018-11-12T07:35:21.581Z,5.07
2018-11-12T07:36:00.151Z,4.93
2018-11-12T07:36:39.197Z,4.80
2018-11-12T07:37:18.029Z,4.40
2018-11-12T07:37:57.016Z,3.80
2018-11-12T07:38:34.821Z,4.10
2018-11-12T07:39:14.008Z,4.50
2018-11-12T07:39:52.033Z,4.67
2018-11-12T07:40:30.966Z,4.57
2018-11-12T07:41:08.952Z,5.10
2018-11-12T07:41:46.929Z,4.97
2018-11-12T07:42:25.113Z,4.20
2018-11-12T07:43:02.935Z,5.17
2018-11-12T07:43:41.857Z,4.73
2018-11-12T07:44:19.819Z,5.33
2018-11-12T07:44:57.562Z,4.70
2018-11-12T07:45:35.898Z,4.40
2018-11-12T07:46:14.783Z,4.85
2018-11-12T07:46:52.993Z,4.97
2018-11-12T07:47:30.932Z,5.20
2018-11-12T07:48:08.848Z,4.60
2018-11-12T07:48:47.240Z,5.10
2018-11-12T07:49:25.258Z,4.60
2018-11-12T07:50:03.348Z,5.03
2018-11-12T07:50:41.225Z,4.60
2018-11-12T07:51:19.213Z,5.00
2018-11-12T07:51:57.116Z,5.47
2018-11-12T07:52:35.029Z,4.77
2018-11-12T07:53:14.445Z,4.37
2018-11-12T07:53:53.155Z,5.10
2018-11-12T07:54:35.520Z,4.73
2018-11-12T07:55:18.102Z,5.33
2018-11-12T07:55:55.908Z,4.80
2018-11-12T07:56:34.768Z,4.50
2018-11-12T07:57:12.698Z,4.80
2018-11-12T07:57:52.024Z,4.80
2018-11-12T07:58:30.059Z,4.40
2018-11-12T07:59:07.907Z,4.83
2018-11-12T07:59:45.857Z,5.23
2018-11-12T08:00:25.391Z,4.80
2018-11-12T08:01:03.275Z,5.50
2018-11-12T08:01:41.366Z,4.27
2018-11-12T08:02:20.390Z,4.07
2018-11-12T08:03:02.286Z,3.50
2018-11-12T08:03:40.426Z,4.37
2018-11-12T08:04:18.337Z,5.20
2018-11-12T08:04:56.387Z,4.90
2018-11-12T08:05:34.576Z,4.37
2018-11-12T08:06:12.548Z,4.23
2018-11-12T08:06:50.494Z,5.63
2018-11-12T08:07:28.503Z,4.73
2018-11-12T08:08:06.465Z,4.07
2018-11-12T08:08:44.349Z,3.73
2018-11-12T08:10:04.314Z,4.03
2018-11-12T08:10:42.166Z,4.00
2018-11-12T08:11:19.951Z,4.20
2018-11-12T08:11:57.965Z,4.00
2018-11-12T08:12:35.927Z,3.53
2018-11-12T08:13:13.750Z,4.00
2018-11-12T08:13:51.656Z,4.13
2018-11-12T08:14:29.638Z,4.23
2018-11-12T08:15:08.100Z,4.40
2018-11-12T08:15:46.101Z,4.27
2018-11-12T08:16:24.041Z,5.37
2018-11-12T08:17:02.016Z,4.73
2018-11-12T08:17:40.123Z,4.30
2018-11-12T08:18:18.129Z,4.80
2018-11-12T08:18:56.090Z,6.30
2018-11-12T08:19:34.280Z,4.40
2018-11-12T08:20:14.874Z,5.57
2018-11-12T08:20:52.645Z,5.13
2018-11-12T08:21:30.608Z,5.40
2018-11-12T08:22:08.794Z,5.70
2018-11-12T08:22:47.842Z,5.00
2018-11-12T08:23:25.836Z,5.30
2018-11-12T08:24:03.833Z,5.20
2018-11-12T08:24:41.907Z,4.70
2018-11-12T08:25:19.869Z,4.70
2018-11-12T08:25:57.831Z,4.27
2018-11-12T08:26:35.737Z,4.07
2018-11-12T08:27:13.579Z,4.33
2018-11-12T08:27:51.939Z,4.90
2018-11-12T08:28:30.013Z,4.50
2018-11-12T08:29:08.482Z,4.30
2018-11-12T08:29:47.094Z,4.50
2018-11-12T08:30:26.413Z,4.57
2018-11-12T08:31:04.293Z,4.90
2018-11-12T08:31:45.523Z,5.10
2018-11-12T08:32:23.414Z,4.07
2018-11-12T08:33:02.323Z,3.87
2018-11-12T08:33:40.820Z,5.10
2018-11-12T08:34:18.623Z,3.40
2018-11-12T08:34:56.524Z,4.43
2018-11-12T08:35:34.559Z,4.03
2018-11-12T08:36:12.548Z,4.70
2018-11-12T08:36:50.555Z,4.03
2018-11-12T08:37:28.512Z,3.80
2018-11-12T08:38:06.463Z,4.67
2018-11-12T08:38:44.440Z,5.13
2018-11-12T08:39:22.590Z,4.20
2018-11-12T08:40:01.054Z,3.90
2018-11-12T08:40:39.094Z,4.40